| time (UTC) | temp F | wind direction | speed MPH | gust MPH | rain 1hr in | rain 24hr in | rain mn in | humidity % | barometer mb |
| 20260508002602 | 67 | 203 | 2.0 | 5.0 | 0.00 | 0.00 | 0.00 | 46 | 1012.1 |
| 20260508001541 | 68 | 180 | 3.0 | 6.0 | 0.00 | 0.00 | 0.00 | 44 | 1012.2 |
| 20260508000520 | 68 | 203 | 3.0 | 7.0 | 0.00 | 0.00 | 0.00 | 44 | 1012.2 |
| 20260507235541 | 68 | 180 | 4.0 | 8.0 | 0.00 | 0.00 | 0.00 | 43 | 1012.3 |
| 20260507234520 | 68 | 180 | 2.0 | 4.0 | 0.00 | 0.00 | 0.00 | 43 | 1012.4 |
| 20260507233520 | 69 | 203 | 3.0 | 8.0 | 0.00 | 0.00 | 0.00 | 43 | 1012.6 |
| 20260507232520 | 68 | 203 | 4.0 | 9.0 | 0.00 | 0.00 | 0.00 | 44 | 1012.6 |
| 20260507231522 | 68 | 225 | 5.0 | 10.0 | 0.00 | 0.00 | 0.00 | 43 | 1012.6 |
| 20260507230520 | 68 | 203 | 4.0 | 9.0 | 0.00 | 0.00 | 0.00 | 44 | 1012.7 |
| 20260507225540 | 68 | 203 | 4.0 | 11.0 | 0.00 | 0.00 | 0.00 | 44 | 1012.7 |
| 20260507224522 | 68 | 203 | 5.0 | 13.0 | 0.00 | 0.00 | 0.00 | 42 | 1012.8 |
| 20260507223522 | 68 | 270 | 3.0 | 8.0 | 0.00 | 0.00 | 0.00 | 45 | 1012.9 |
| 20260507222520 | 68 | 180 | 5.0 | 10.0 | 0.00 | 0.00 | 0.00 | 43 | 1013.0 |
| 20260507221520 | 69 | 225 | 4.0 | 10.0 | 0.00 | 0.00 | 0.00 | 42 | 1013.1 |
| 20260507220540 | 69 | 225 | 4.0 | 16.0 | 0.00 | 0.00 | 0.00 | 44 | 1013.2 |
| 20260507215522 | 69 | 270 | 4.0 | 17.0 | 0.00 | 0.00 | 0.00 | 42 | 1013.1 |
| 20260507214522 | 70 | 180 | 5.0 | 18.0 | 0.00 | 0.00 | 0.00 | 42 | 1013.3 |
| 20260507213542 | 69 | 203 | 5.0 | 10.0 | 0.00 | 0.00 | 0.00 | 44 | 1013.4 |
| 20260507212522 | 69 | 203 | 4.0 | 13.0 | 0.00 | 0.00 | 0.00 | 45 | 1013.5 |
| 20260507211542 | 69 | 225 | 6.0 | 14.0 | 0.00 | 0.00 | 0.00 | 44 | 1013.7 |
| 20260507210522 | 69 | 158 | 3.0 | 9.0 | 0.00 | 0.00 | 0.00 | 44 | 1013.8 |
| 20260507205522 | 68 | 225 | 5.0 | 12.0 | 0.00 | 0.00 | 0.00 | 45 | 1014.0 |
| 20260507204522 | 68 | 203 | 6.0 | 14.0 | 0.00 | 0.00 | 0.00 | 46 | 1014.3 |
| 20260507203542 | 68 | 270 | 5.0 | 14.0 | 0.00 | 0.00 | 0.00 | 45 | 1014.5 |
| 20260507202542 | 68 | 203 | 5.0 | 14.0 | 0.00 | 0.00 | 0.00 | 46 | 1014.7 |
| 20260507201522 | 68 | 203 | 4.0 | 13.0 | 0.00 | 0.00 | 0.00 | 48 | 1014.9 |
| 20260507200522 | 67 | 203 | 5.0 | 13.0 | 0.00 | 0.00 | 0.00 | 47 | 1015.0 |
| 20260507195522 | 66 | 225 | 6.0 | 15.0 | 0.00 | 0.00 | 0.00 | 49 | 1015.0 |
| 20260507194521 | 66 | 203 | 7.0 | 14.0 | 0.00 | 0.00 | 0.00 | 48 | 1015.2 |
| 20260507193521 | 66 | 180 | 4.0 | 15.0 | 0.00 | 0.00 | 0.00 | 51 | 1015.4 |
| 20260507192522 | 66 | 135 | 6.0 | 13.0 | 0.00 | 0.00 | 0.00 | 50 | 1015.4 |
| 20260507191522 | 65 | 225 | 3.0 | 9.0 | 0.00 | 0.00 | 0.00 | 50 | 1015.5 |
| 20260507190522 | 65 | 180 | 5.0 | 11.0 | 0.00 | 0.00 | 0.00 | 51 | 1015.7 |
| 20260507185522 | 65 | 225 | 5.0 | 13.0 | 0.00 | 0.00 | 0.00 | 51 | 1015.9 |
| 20260507184522 | 64 | 203 | 6.0 | 16.0 | 0.00 | 0.00 | 0.00 | 53 | 1016.1 |
| 20260507183542 | 64 | 180 | 4.0 | 12.0 | 0.00 | 0.00 | 0.00 | 54 | 1016.2 |
| 20260507182542 | 63 | 203 | 4.0 | 10.0 | 0.00 | 0.00 | 0.00 | 55 | 1016.4 |
| 20260507181521 | 64 | 203 | 5.0 | 19.0 | 0.00 | 0.00 | 0.00 | 53 | 1016.5 |
| 20260507180522 | 63 | 225 | 5.0 | 17.0 | 0.00 | 0.00 | 0.00 | 54 | 1016.5 |
| 20260507175521 | 63 | 203 | 6.0 | 15.0 | 0.00 | 0.00 | 0.00 | 53 | 1016.7 |
| 20260507174522 | 63 | 203 | 4.0 | 13.0 | 0.00 | 0.00 | 0.00 | 53 | 1016.9 |
| 20260507173521 | 63 | 203 | 6.0 | 17.0 | 0.00 | 0.00 | 0.00 | 54 | 1017.1 |
| 20260507172541 | 63 | 225 | 5.0 | 12.0 | 0.00 | 0.00 | 0.00 | 55 | 1017.1 |
| 20260507171521 | 63 | 293 | 4.0 | 10.0 | 0.00 | 0.00 | 0.00 | 55 | 1017.3 |
| 20260507170521 | 62 | 180 | 6.0 | 15.0 | 0.00 | 0.00 | 0.00 | 54 | 1017.3 |
| 20260507165522 | 63 | 293 | 5.0 | 13.0 | 0.00 | 0.00 | 0.00 | 55 | 1017.6 |
| 20260507164541 | 61 | 293 | 4.0 | 12.0 | 0.00 | 0.00 | 0.00 | 58 | 1017.7 |
| 20260507163521 | 61 | 203 | 4.0 | 14.0 | 0.00 | 0.00 | 0.00 | 57 | 1017.7 |
| 20260507162521 | 61 | 203 | 7.0 | 18.0 | 0.00 | 0.00 | 0.00 | 57 | 1017.8 |
| 20260507161521 | 61 | 225 | 4.0 | 12.0 | 0.00 | 0.00 | 0.00 | 57 | 1017.9 |
| 20260507160522 | 61 | 180 | 4.0 | 11.0 | 0.00 | 0.00 | 0.00 | 57 | 1017.9 |
| 20260507155521 | 61 | 203 | 4.0 | 9.0 | 0.00 | 0.00 | 0.00 | 59 | 1018.1 |
| 20260507154521 | 60 | 225 | 4.0 | 13.0 | 0.00 | 0.00 | 0.00 | 60 | 1018.1 |
| 20260507153521 | 60 | 225 | 5.0 | 13.0 | 0.00 | 0.00 | 0.00 | 62 | 1018.2 |
| 20260507152521 | 60 | 203 | 4.0 | 10.0 | 0.00 | 0.00 | 0.00 | 61 | 1018.3 |
| 20260507151521 | 59 | 203 | 4.0 | 12.0 | 0.00 | 0.00 | 0.00 | 61 | 1018.3 |
| 20260507150521 | 59 | 180 | 2.0 | 4.0 | 0.00 | 0.00 | 0.00 | 63 | 1018.5 |
| 20260507145521 | 58 | 203 | 3.0 | 9.0 | 0.00 | 0.00 | 0.00 | 62 | 1018.5 |
| 20260507144521 | 58 | 203 | 4.0 | 10.0 | 0.00 | 0.00 | 0.00 | 63 | 1018.5 |
| 20260507143521 | 57 | 293 | 3.0 | 9.0 | 0.00 | 0.00 | 0.00 | 64 | 1018.6 |
| 20260507142522 | 57 | 203 | 5.0 | 11.0 | 0.00 | 0.00 | 0.00 | 65 | 1018.6 |
| 20260507141521 | 56 | 293 | 1.0 | 5.0 | 0.00 | 0.00 | 0.00 | 67 | 1018.5 |
| 20260507140521 | 55 | 203 | 4.0 | 8.0 | 0.00 | 0.00 | 0.00 | 68 | 1018.8 |
| 20260507135521 | 55 | 270 | 3.0 | 6.0 | 0.00 | 0.00 | 0.00 | 68 | 1018.9 |
| 20260507134521 | 54 | 203 | 4.0 | 9.0 | 0.00 | 0.00 | 0.00 | 69 | 1018.8 |
| 20260507133521 | 54 | 180 | 2.0 | 8.0 | 0.00 | 0.00 | 0.00 | 72 | 1018.9 |
| 20260507132521 | 53 | 203 | 3.0 | 5.0 | 0.00 | 0.00 | 0.00 | 71 | 1019.0 |
| 20260507131521 | 52 | 158 | 2.0 | 7.0 | 0.00 | 0.00 | 0.00 | 73 | 1018.9 |
| 20260507130521 | 51 | 225 | 2.0 | 7.0 | 0.00 | 0.00 | 0.00 | 75 | 1019.1 |
| 20260507125521 | 50 | 180 | 2.0 | 6.0 | 0.00 | 0.00 | 0.00 | 77 | 1019.1 |
| 20260507124521 | 49 | 180 | 2.0 | 4.0 | 0.00 | 0.00 | 0.00 | 78 | 1019.1 |
| 20260507123521 | 48 | 180 | 2.0 | 3.0 | 0.00 | 0.00 | 0.00 | 79 | 1018.9 |
| 20260507122520 | 47 | 158 | 2.0 | 5.0 | 0.00 | 0.00 | 0.00 | 79 | 1018.9 |
| 20260507121601 | 46 | 180 | 3.0 | 6.0 | 0.00 | 0.00 | 0.00 | 80 | 1018.8 |
| 20260507120521 | 45 | 180 | 2.0 | 5.0 | 0.00 | 0.00 | 0.00 | 81 | 1019.0 |
| 20260507115541 | 44 | 180 | 1.0 | 3.0 | 0.00 | 0.00 | 0.00 | 82 | 1018.8 |
| 20260507114520 | 44 | 180 | 2.0 | 3.0 | 0.00 | 0.00 | 0.00 | 82 | 1018.8 |
| 20260507113521 | 44 | 180 | 1.0 | 3.0 | 0.00 | 0.00 | 0.00 | 82 | 1018.7 |
| 20260507112521 | 44 | 180 | 1.0 | 3.0 | 0.00 | 0.00 | 0.00 | 82 | 1018.6 |
| 20260507111521 | 44 | 180 | 1.0 | 3.0 | 0.00 | 0.00 | 0.00 | 81 | 1018.6 |
| 20260507110521 | 44 | 180 | 2.0 | 2.0 | 0.00 | 0.00 | 0.00 | 81 | 1018.6 |
| 20260507105521 | 44 | 180 | 1.0 | 3.0 | 0.00 | 0.00 | 0.00 | 80 | 1018.6 |
| 20260507104521 | 44 | 180 | 1.0 | 2.0 | 0.00 | 0.00 | 0.00 | 80 | 1018.5 |
| 20260507103521 | 44 | 180 | 1.0 | 2.0 | 0.00 | 0.00 | 0.00 | 79 | 1018.6 |
| 20260507102521 | 44 | 180 | 1.0 | 2.0 | 0.00 | 0.00 | 0.00 | 78 | 1018.7 |
| 20260507101521 | 44 | 180 | 1.0 | 2.0 | 0.00 | 0.00 | 0.00 | 76 | 1018.7 |
| 20260507100521 | 45 | 180 | 1.0 | 2.0 | 0.00 | 0.00 | 0.00 | 74 | 1018.7 |
| 20260507095520 | 45 | 180 | 1.0 | 2.0 | 0.00 | 0.00 | 0.00 | 74 | 1018.8 |
| 20260507094540 | 45 | 180 | 1.0 | 3.0 | 0.00 | 0.00 | 0.00 | 74 | 1018.8 |
| 20260507093520 | 45 | 180 | 1.0 | 2.0 | 0.00 | 0.00 | 0.00 | 74 | 1018.9 |
| 20260507092521 | 44 | 180 | 1.0 | 2.0 | 0.00 | 0.00 | 0.00 | 74 | 1018.9 |
| 20260507091521 | 44 | 180 | 2.0 | 3.0 | 0.00 | 0.00 | 0.00 | 76 | 1018.9 |
| 20260507090520 | 44 | 315 | 1.0 | 2.0 | 0.00 | 0.00 | 0.00 | 77 | 1019.0 |
| 20260507085520 | 44 | 315 | 1.0 | 2.0 | 0.00 | 0.00 | 0.00 | 77 | 1019.0 |
| 20260507084522 | 44 | 315 | 1.0 | 1.0 | 0.00 | 0.00 | 0.00 | 77 | 1019.0 |
| 20260507083520 | 44 | 315 | 1.0 | 2.0 | 0.00 | 0.00 | 0.00 | 77 | 1019.0 |
| 20260507082520 | 44 | 315 | 1.0 | 2.0 | 0.00 | 0.00 | 0.00 | 76 | 1019.0 |
| 20260507081542 | 45 | 315 | 1.0 | 2.0 | 0.00 | 0.00 | 0.00 | 75 | 1019.0 |
| 20260507080520 | 45 | 315 | 1.0 | 2.0 | 0.00 | 0.00 | 0.00 | 74 | 1019.0 |
| 20260507075541 | 45 | 315 | 1.0 | 2.0 | 0.00 | 0.00 | 0.00 | 73 | 1018.9 |
| 20260507074522 | 45 | 315 | 1.0 | 2.0 | 0.00 | 0.00 | 0.00 | 72 | 1019.1 |
| 20260507073522 | 46 | 315 | 1.0 | 1.0 | 0.00 | 0.00 | 0.00 | 70 | 1019.1 |
| 20260507072522 | 46 | 315 | 1.0 | 1.0 | 0.00 | 0.00 | 0.00 | 70 | 1019.2 |
| 20260507071520 | 46 | 0.0 | 1.0 | 0.00 | 0.00 | 0.00 | 71 | 1019.2 | |
| 20260507070522 | 47 | 315 | 1.0 | 2.0 | 0.00 | 0.00 | 0.00 | 71 | 1019.3 |
| 20260507065522 | 47 | 315 | 1.0 | 1.0 | 0.00 | 0.01 | 0.00 | 72 | 1019.5 |
| 20260507064520 | 47 | 0.0 | 0.0 | 0.00 | 0.01 | 0.00 | 72 | 1019.6 | |
| 20260507063602 | 47 | 0.0 | 0.0 | 0.00 | 0.01 | 0.00 | 72 | 1019.6 | |
| 20260507062522 | 47 | 0.0 | 0.0 | 0.00 | 0.01 | 0.00 | 72 | 1019.7 | |
| 20260507061522 | 47 | 0.0 | 0.0 | 0.00 | 0.01 | 0.00 | 74 | 1019.6 | |
| 20260507060522 | 46 | 0.0 | 0.0 | 0.00 | 0.01 | 0.00 | 73 | 1019.6 | |
| 20260507055522 | 47 | 315 | 1.0 | 1.0 | 0.00 | 0.01 | 0.00 | 75 | 1019.5 |
| 20260507054522 | 46 | 0.0 | 1.0 | 0.00 | 0.01 | 0.00 | 74 | 1019.6 | |
| 20260507053522 | 46 | 0.0 | 1.0 | 0.00 | 0.01 | 0.00 | 74 | 1019.7 | |
| 20260507052522 | 46 | 315 | 1.0 | 1.0 | 0.00 | 0.01 | 0.00 | 74 | 1019.7 |
| 20260507051522 | 46 | 0.0 | 1.0 | 0.00 | 0.01 | 0.00 | 75 | 1019.7 | |
| 20260507050542 | 46 | 315 | 1.0 | 2.0 | 0.00 | 0.01 | 0.00 | 75 | 1019.6 |
| 20260507045541 | 46 | 315 | 1.0 | 1.0 | 0.00 | 0.01 | 0.01 | 74 | 1019.7 |
| 20260507044521 | 46 | 315 | 1.0 | 1.0 | 0.00 | 0.01 | 0.01 | 74 | 1019.7 |
| 20260507043521 | 46 | 315 | 1.0 | 2.0 | 0.00 | 0.01 | 0.01 | 74 | 1019.7 |
| 20260507042601 | 47 | 315 | 1.0 | 2.0 | 0.00 | 0.01 | 0.01 | 73 | 1019.7 |
| 20260507041521 | 47 | 315 | 1.0 | 2.0 | 0.00 | 0.01 | 0.01 | 73 | 1019.5 |
| 20260507040521 | 46 | 315 | 1.0 | 2.0 | 0.00 | 0.01 | 0.01 | 71 | 1019.7 |
| 20260507035521 | 47 | 0.0 | 1.0 | 0.00 | 0.01 | 0.01 | 70 | 1019.8 | |
| 20260507034541 | 47 | 0.0 | 0.0 | 0.00 | 0.01 | 0.01 | 68 | 1019.9 | |
| 20260507033521 | 47 | 315 | 1.0 | 1.0 | 0.00 | 0.01 | 0.01 | 68 | 1019.8 |
| 20260507032521 | 47 | 315 | 1.0 | 2.0 | 0.00 | 0.01 | 0.01 | 66 | 1019.7 |
| 20260507031521 | 47 | 315 | 1.0 | 1.0 | 0.00 | 0.01 | 0.01 | 64 | 1019.6 |
| 20260507030521 | 48 | 0.0 | 0.0 | 0.00 | 0.01 | 0.01 | 64 | 1019.6 | |
| 20260507025521 | 48 | 0.0 | 0.0 | 0.00 | 0.01 | 0.01 | 63 | 1019.7 | |
| 20260507024541 | 49 | 0.0 | 0.0 | 0.00 | 0.01 | 0.01 | 62 | 1019.6 | |
| 20260507023601 | 49 | 0.0 | 0.0 | 0.00 | 0.01 | 0.01 | 59 | 1019.5 | |
| 20260507022521 | 50 | 0.0 | 0.0 | 0.00 | 0.01 | 0.01 | 58 | 1019.4 | |
| 20260507021541 | 50 | 0.0 | 0.0 | 0.00 | 0.01 | 0.01 | 56 | 1019.4 | |
| 20260507020521 | 51 | 0.0 | 0.0 | 0.00 | 0.01 | 0.01 | 55 | 1019.2 | |
| 20260507015521 | 51 | 0.0 | 0.0 | 0.00 | 0.01 | 0.01 | 53 | 1019.2 | |
| 20260507014521 | 52 | 0.0 | 1.0 | 0.00 | 0.01 | 0.01 | 52 | 1019.2 | |
| 20260507013521 | 53 | 0.0 | 0.0 | 0.00 | 0.01 | 0.01 | 48 | 1019.1 | |
| 20260507012521 | 54 | 0.0 | 2.0 | 0.00 | 0.01 | 0.01 | 46 | 1019.1 | |
| 20260507011521 | 55 | 0.0 | 1.0 | 0.00 | 0.01 | 0.01 | 44 | 1018.9 | |
| 20260507010541 | 56 | 0.0 | 1.0 | 0.00 | 0.01 | 0.01 | 41 | 1018.9 | |
| 20260507005521 | 56 | 315 | 1.0 | 2.0 | 0.00 | 0.01 | 0.01 | 40 | 1018.9 |
| 20260507004521 | 57 | 338 | 1.0 | 3.0 | 0.00 | 0.01 | 0.01 | 39 | 1018.8 |
| 20260507003541 | 57 | 0 | 2.0 | 3.0 | 0.00 | 0.01 | 0.01 | 38 | 1018.8 |